Terminal Aerodrome Forecast
Issued by NWS Boston, MA

Home | Current Version | Previous Version | Text Only | Print | Product List | Glossary On
Versions: 1 2 3 4 5 6 7 8 9 10 11 12 13 14 15 16 17 18 19 20 21 22 23 24 25 26 27
000
FTUS41 KBOX 241727
TAFBOS
TAF
KBOS 241727Z 2418/2524 20014G30KT 6SM -RA OVC030
      TEMPO 2418/2419 2SM -SN BR OVC020
     FM242000 21014G30KT P6SM OVC040
     FM250200 23009KT P6SM OVC040
     FM251400 35005KT P6SM VCSH OVC025
     FM251700 02005KT P6SM VCSH OVC020=

USA.gov is the U.S. government's official web portal to all federal, state and local government web resources and services.